createdAt,value
2022-08-19T00:02:00.481Z,26.80
2022-08-19T00:04:32.944Z,26.80
2022-08-19T00:07:02.284Z,26.70
2022-08-19T00:09:32.467Z,26.70
2022-08-19T00:12:02.368Z,26.70
2022-08-19T00:14:33.034Z,26.80
2022-08-19T00:17:04.144Z,26.70
2022-08-19T00:19:33.074Z,26.70
2022-08-19T00:22:03.657Z,26.60
2022-08-19T00:24:34.730Z,26.40
2022-08-19T00:27:24.945Z,26.50
2022-08-19T00:29:53.929Z,26.40
2022-08-19T00:32:23.918Z,26.20
2022-08-19T00:34:54.625Z,26.10
2022-08-19T00:37:26.720Z,25.90
2022-08-19T00:39:58.050Z,25.90
2022-08-19T00:42:29.636Z,25.90
2022-08-19T00:44:58.357Z,25.80
2022-08-19T00:47:27.142Z,25.80
2022-08-19T00:50:00.745Z,25.80
2022-08-19T00:52:32.114Z,25.70
2022-08-19T00:55:03.642Z,25.80
2022-08-19T00:57:37.492Z,25.80
2022-08-19T01:00:10.935Z,25.80
2022-08-19T01:02:40.071Z,25.80
2022-08-19T01:05:13.180Z,26.00
2022-08-19T01:07:43.790Z,26.00
2022-08-19T01:10:19.686Z,26.00
2022-08-19T01:12:49.018Z,26.10
2022-08-19T01:15:20.984Z,25.90
2022-08-19T01:17:50.448Z,25.60
2022-08-19T01:20:22.340Z,25.50
2022-08-19T01:22:54.479Z,25.40
2022-08-19T01:25:27.345Z,25.30
2022-08-19T01:28:01.702Z,25.30
2022-08-19T01:30:44.276Z,25.30
2022-08-19T01:33:13.556Z,25.10
2022-08-19T01:35:43.098Z,25.10
2022-08-19T01:38:23.665Z,25.20
2022-08-19T01:40:53.467Z,25.20
2022-08-19T01:43:22.429Z,25.20
2022-08-19T01:45:52.159Z,25.10
2022-08-19T01:48:20.998Z,25.10
2022-08-19T01:50:50.058Z,25.20
2022-08-19T01:53:20.188Z,25.10
2022-08-19T01:55:49.813Z,25.10
2022-08-19T01:58:21.986Z,25.20
2022-08-19T02:00:51.389Z,25.00
2022-08-19T02:03:20.115Z,25.00
2022-08-19T02:05:48.882Z,25.10
2022-08-19T02:08:17.520Z,25.00
2022-08-19T02:10:47.733Z,25.10
2022-08-19T02:13:16.628Z,25.10
2022-08-19T02:15:53.162Z,25.00
2022-08-19T02:18:22.997Z,24.90
2022-08-19T02:20:57.011Z,24.80
2022-08-19T02:23:25.640Z,24.70
2022-08-19T02:25:55.767Z,24.70
2022-08-19T02:28:24.424Z,24.70
2022-08-19T02:30:53.131Z,24.60
2022-08-19T02:33:21.904Z,24.50
2022-08-19T02:35:50.583Z,24.60
2022-08-19T02:38:27.134Z,24.60
2022-08-19T02:40:59.304Z,24.60
2022-08-19T02:43:32.216Z,24.50
2022-08-19T02:46:03.245Z,24.40
2022-08-19T02:48:32.689Z,24.30
2022-08-19T02:51:01.343Z,24.30
2022-08-19T02:53:30.492Z,24.30
2022-08-19T02:56:00.611Z,24.30
2022-08-19T02:58:29.310Z,24.10
2022-08-19T03:00:58.925Z,24.10
2022-08-19T03:03:28.128Z,24.10
2022-08-19T03:06:10.298Z,24.10
2022-08-19T03:08:40.135Z,24.20
2022-08-19T03:11:15.715Z,24.10
2022-08-19T03:13:45.043Z,24.10
2022-08-19T03:16:15.281Z,24.10
2022-08-19T03:18:44.621Z,24.00
2022-08-19T03:21:18.148Z,23.90
2022-08-19T03:23:47.042Z,23.90
2022-08-19T03:26:17.351Z,23.90
2022-08-19T03:28:49.519Z,23.90
2022-08-19T03:31:45.664Z,23.90
2022-08-19T03:34:21.081Z,23.90
2022-08-19T03:36:50.072Z,23.80
2022-08-19T03:39:19.212Z,23.80
2022-08-19T03:42:32.456Z,23.80
2022-08-19T03:44:40.046Z,23.80
2022-08-19T03:47:09.180Z,23.70
2022-08-19T03:49:38.056Z,23.60
2022-08-19T03:52:08.687Z,23.70
2022-08-19T03:54:39.225Z,23.70
2022-08-19T03:57:10.251Z,23.70
2022-08-19T03:59:40.669Z,23.70
2022-08-19T04:02:12.664Z,23.70
2022-08-19T04:04:43.631Z,23.70
2022-08-19T04:07:14.129Z,23.70
2022-08-19T04:09:42.890Z,23.70
2022-08-19T04:12:12.960Z,23.70
2022-08-19T04:14:42.426Z,23.80
2022-08-19T04:17:11.133Z,23.80
2022-08-19T04:19:39.813Z,23.80
2022-08-19T04:22:09.164Z,23.80
2022-08-19T04:24:38.272Z,23.90
2022-08-19T04:27:07.874Z,23.90
2022-08-19T04:29:40.670Z,23.90
2022-08-19T04:32:10.007Z,24.00
2022-08-19T04:35:01.270Z,24.00
2022-08-19T04:37:35.325Z,24.00
2022-08-19T04:40:24.565Z,24.00
2022-08-19T04:42:53.278Z,24.00
2022-08-19T04:45:23.606Z,23.90
2022-08-19T04:47:58.509Z,23.90
2022-08-19T04:50:44.086Z,23.80
2022-08-19T04:53:14.847Z,24.00
2022-08-19T04:55:44.107Z,24.00
2022-08-19T04:58:13.028Z,24.10
2022-08-19T05:00:43.748Z,24.10
2022-08-19T05:03:12.737Z,24.20
2022-08-19T05:05:44.642Z,24.20
2022-08-19T05:08:15.297Z,24.40
2022-08-19T05:10:44.297Z,24.40
2022-08-19T05:13:13.235Z,24.50
2022-08-19T05:15:43.420Z,24.70
2022-08-19T05:18:32.357Z,24.60
2022-08-19T05:21:18.573Z,24.70
2022-08-19T05:23:47.173Z,24.70
2022-08-19T05:26:15.832Z,24.70
2022-08-19T05:28:44.494Z,24.90
2022-08-19T05:31:15.059Z,25.00
2022-08-19T05:33:43.802Z,25.10
2022-08-19T05:36:12.574Z,25.20
2022-08-19T05:38:41.183Z,25.20
2022-08-19T05:41:11.061Z,25.30
2022-08-19T05:43:39.928Z,25.30
2022-08-19T05:46:10.721Z,25.30
2022-08-19T05:48:40.744Z,25.30
2022-08-19T05:51:10.161Z,25.40
2022-08-19T05:53:40.060Z,25.50
2022-08-19T05:56:09.221Z,25.60
2022-08-19T05:58:38.802Z,25.80
2022-08-19T06:01:13.097Z,25.90
2022-08-19T06:03:43.664Z,26.00
2022-08-19T06:06:14.665Z,26.10
2022-08-19T06:08:44.126Z,26.30
2022-08-19T06:11:21.987Z,26.30
2022-08-19T06:13:59.753Z,26.40
2022-08-19T06:16:30.110Z,26.60
2022-08-19T06:19:03.007Z,26.70
2022-08-19T06:21:33.051Z,26.80
2022-08-19T06:24:02.054Z,26.90
2022-08-19T06:26:30.822Z,27.10
2022-08-19T06:28:59.681Z,27.30
2022-08-19T06:31:30.505Z,27.40
2022-08-19T06:34:00.617Z,27.60
2022-08-19T06:36:33.162Z,27.90
2022-08-19T06:39:02.728Z,28.30
2022-08-19T06:41:32.452Z,28.60
2022-08-19T06:44:01.211Z,28.80
2022-08-19T06:46:29.971Z,28.80
2022-08-19T06:49:06.253Z,28.90
2022-08-19T06:51:35.519Z,29.10
2022-08-19T06:54:19.213Z,29.30
2022-08-19T06:56:48.997Z,29.60
2022-08-19T06:59:20.151Z,29.50
2022-08-19T07:01:51.306Z,29.50
2022-08-19T07:04:23.827Z,29.70
2022-08-19T07:06:59.430Z,30.20
2022-08-19T07:09:55.365Z,30.80
2022-08-19T07:12:32.537Z,31.20
2022-08-19T07:15:01.259Z,31.90
2022-08-19T07:17:39.127Z,32.50
2022-08-19T07:20:10.518Z,32.70
2022-08-19T07:22:43.423Z,33.10
2022-08-19T07:25:17.140Z,33.60
2022-08-19T07:27:46.596Z,33.40
2022-08-19T07:30:26.223Z,33.20
2022-08-19T07:32:55.118Z,33.00
2022-08-19T07:35:26.973Z,33.10
2022-08-19T07:37:55.682Z,33.20
2022-08-19T07:40:24.615Z,33.80
2022-08-19T07:42:53.343Z,34.30
2022-08-19T07:45:22.058Z,35.00
2022-08-19T07:47:51.414Z,35.50
2022-08-19T07:50:21.795Z,36.20
2022-08-19T07:52:52.989Z,37.00
2022-08-19T07:55:42.204Z,37.70
2022-08-19T07:58:13.715Z,38.10
2022-08-19T08:00:43.395Z,38.20
2022-08-19T08:03:13.144Z,37.90
2022-08-19T08:05:58.610Z,37.80
2022-08-19T08:08:47.910Z,37.80
2022-08-19T08:11:19.959Z,37.30
2022-08-19T08:14:00.723Z,37.10
2022-08-19T08:16:32.458Z,36.50
2022-08-19T08:19:01.607Z,36.20
2022-08-19T08:21:30.454Z,36.30
2022-08-19T08:26:34.465Z,35.90
2022-08-19T08:29:12.489Z,36.20
2022-08-19T08:31:43.202Z,36.50
2022-08-19T08:34:13.338Z,37.60
2022-08-19T08:36:47.939Z,39.20
2022-08-19T08:39:20.417Z,40.10
2022-08-19T08:41:55.397Z,40.60
2022-08-19T08:44:30.468Z,40.50
2022-08-19T08:47:02.421Z,40.20
2022-08-19T08:49:36.037Z,39.70
2022-08-19T08:52:08.400Z,39.50
2022-08-19T08:54:48.827Z,38.90
2022-08-19T08:57:29.145Z,38.60
2022-08-19T09:00:15.520Z,39.00
2022-08-19T09:02:44.644Z,39.40
2022-08-19T09:05:22.703Z,40.00
2022-08-19T09:08:03.784Z,40.80
2022-08-19T09:10:44.441Z,41.90
2022-08-19T09:13:23.631Z,42.50
2022-08-19T09:16:05.022Z,43.20
2022-08-19T09:18:43.698Z,44.40
2022-08-19T09:21:13.340Z,45.50
2022-08-19T09:23:42.316Z,46.20
2022-08-19T09:26:16.348Z,46.30
2022-08-19T09:28:48.767Z,46.00
2022-08-19T09:31:20.050Z,45.50
2022-08-19T09:33:52.286Z,45.70
2022-08-19T09:36:33.806Z,45.80
2022-08-19T09:39:04.110Z,46.50
2022-08-19T09:41:37.428Z,46.80
2022-08-19T09:44:12.919Z,47.30
2022-08-19T09:46:41.680Z,47.80
2022-08-19T09:49:10.977Z,48.60
2022-08-19T09:51:45.885Z,49.20
2022-08-19T09:54:23.630Z,49.10
2022-08-19T09:56:55.807Z,49.10
2022-08-19T09:59:25.058Z,49.60
2022-08-19T10:01:53.920Z,49.60
2022-08-19T10:04:23.502Z,49.60
2022-08-19T10:06:57.883Z,48.40
2022-08-19T10:09:34.146Z,48.10
2022-08-19T10:12:06.681Z,48.70
2022-08-19T10:14:40.321Z,49.10
2022-08-19T10:17:19.192Z,49.20
2022-08-19T10:19:55.682Z,48.80
2022-08-19T10:22:25.942Z,48.80
2022-08-19T10:24:55.518Z,48.80
2022-08-19T10:27:26.413Z,49.20
2022-08-19T10:29:55.437Z,49.10
2022-08-19T10:32:33.832Z,48.50
2022-08-19T10:35:05.402Z,48.40
2022-08-19T10:37:35.290Z,48.90
2022-08-19T10:40:04.799Z,48.30
2022-08-19T10:42:38.080Z,47.80
2022-08-19T10:45:09.378Z,47.40
2022-08-19T10:47:40.808Z,47.40
2022-08-19T10:50:39.006Z,48.60
2022-08-19T10:53:11.722Z,49.00
2022-08-19T10:56:01.379Z,49.60
2022-08-19T10:58:32.439Z,49.90
2022-08-19T11:01:01.803Z,50.40
2022-08-19T11:03:31.579Z,50.00
2022-08-19T11:06:01.537Z,47.90
2022-08-19T11:08:32.119Z,46.20
2022-08-19T11:11:04.533Z,45.30
2022-08-19T11:13:38.520Z,44.90
2022-08-19T11:16:10.361Z,45.40
2022-08-19T11:18:41.241Z,45.80
2022-08-19T11:21:12.948Z,45.40
2022-08-19T11:23:45.050Z,45.50
2022-08-19T11:26:15.002Z,45.70
2022-08-19T11:28:46.695Z,45.90
2022-08-19T11:31:18.628Z,45.60
2022-08-19T11:33:48.044Z,46.10
2022-08-19T11:36:17.707Z,46.90
2022-08-19T11:38:49.809Z,47.40
2022-08-19T11:41:21.016Z,48.10
2022-08-19T11:43:54.195Z,48.90
2022-08-19T11:46:25.255Z,48.40
2022-08-19T11:48:55.801Z,48.10
2022-08-19T11:51:27.068Z,46.10
2022-08-19T11:53:57.499Z,44.40
2022-08-19T11:56:27.258Z,43.20
2022-08-19T11:58:59.012Z,43.80
2022-08-19T12:01:28.643Z,44.10
2022-08-19T12:03:58.927Z,44.00
2022-08-19T12:06:30.333Z,43.30
2022-08-19T12:09:00.932Z,43.50
2022-08-19T12:11:31.311Z,44.00
2022-08-19T12:14:05.398Z,43.80
2022-08-19T12:16:42.620Z,44.50
2022-08-19T12:19:27.038Z,44.30
2022-08-19T12:22:02.091Z,43.70
2022-08-19T12:24:33.913Z,43.20
2022-08-19T12:27:04.104Z,43.10
2022-08-19T12:29:35.051Z,42.60
2022-08-19T12:32:04.263Z,42.60
2022-08-19T12:34:35.217Z,42.70
2022-08-19T12:37:05.818Z,43.00
2022-08-19T12:39:38.417Z,42.60
2022-08-19T12:42:08.507Z,42.30
2022-08-19T12:44:40.676Z,42.70
2022-08-19T12:47:14.458Z,43.20
2022-08-19T12:49:53.387Z,43.10
2022-08-19T12:52:25.263Z,43.00
2022-08-19T12:54:55.563Z,43.70
2022-08-19T12:57:31.697Z,43.80
2022-08-19T13:00:08.099Z,44.90
2022-08-19T13:02:39.005Z,45.90
2022-08-19T13:05:12.384Z,46.20
2022-08-19T13:07:42.790Z,46.20
2022-08-19T13:10:13.776Z,46.60
2022-08-19T13:12:43.306Z,45.10
2022-08-19T13:15:16.892Z,45.00
2022-08-19T13:17:51.710Z,44.80
2022-08-19T13:20:23.578Z,44.60
2022-08-19T13:22:52.819Z,44.20
2022-08-19T13:25:22.394Z,44.20
2022-08-19T13:27:52.180Z,44.60
2022-08-19T13:30:40.984Z,44.90
2022-08-19T13:33:16.038Z,45.40
2022-08-19T13:35:48.737Z,45.60
2022-08-19T13:38:22.517Z,44.90
2022-08-19T13:40:55.222Z,44.50
2022-08-19T13:43:26.148Z,44.50
2022-08-19T13:45:58.708Z,45.30
2022-08-19T13:48:28.837Z,45.30
2022-08-19T13:50:58.070Z,44.10
2022-08-19T13:53:27.353Z,42.60
2022-08-19T13:55:56.133Z,41.90
2022-08-19T13:58:25.106Z,41.70
2022-08-19T14:00:55.389Z,41.30
2022-08-19T14:03:24.920Z,40.90
2022-08-19T14:05:53.813Z,40.20
2022-08-19T14:08:22.711Z,39.40
2022-08-19T14:10:52.609Z,38.60
2022-08-19T14:13:23.867Z,38.50
2022-08-19T14:15:54.341Z,38.30
2022-08-19T14:18:28.524Z,38.30
2022-08-19T14:20:57.989Z,38.20
2022-08-19T14:23:28.401Z,38.10
2022-08-19T14:26:06.173Z,37.80
2022-08-19T14:28:35.156Z,37.30
2022-08-19T14:31:03.894Z,36.80
2022-08-19T14:33:34.134Z,36.90
2022-08-19T14:36:02.741Z,36.90
2022-08-19T14:38:32.724Z,36.70
2022-08-19T14:41:14.290Z,36.40
2022-08-19T14:43:43.632Z,36.40
2022-08-19T14:46:13.923Z,36.20
2022-08-19T14:48:47.886Z,36.20
2022-08-19T14:51:21.607Z,36.20
2022-08-19T14:53:51.080Z,36.30
2022-08-19T14:56:22.320Z,35.90
2022-08-19T14:58:52.773Z,35.90
2022-08-19T15:01:23.351Z,35.30
2022-08-19T15:03:55.168Z,35.10
2022-08-19T15:06:24.571Z,35.10
2022-08-19T15:08:54.911Z,35.20
2022-08-19T15:11:28.008Z,34.90
2022-08-19T15:13:58.256Z,34.20
2022-08-19T15:16:28.391Z,33.90
2022-08-19T15:19:00.146Z,33.60
2022-08-19T15:21:30.983Z,33.80
2022-08-19T15:24:01.860Z,33.90
2022-08-19T15:26:33.562Z,33.80
2022-08-19T15:29:02.526Z,33.70
2022-08-19T15:31:38.216Z,33.40
2022-08-19T15:34:09.407Z,33.20
2022-08-19T15:36:38.523Z,33.00
2022-08-19T15:39:10.512Z,32.60
2022-08-19T15:41:39.847Z,32.60
2022-08-19T15:44:13.532Z,32.60
2022-08-19T15:46:46.309Z,32.40
2022-08-19T15:49:18.749Z,31.80
2022-08-19T15:51:52.026Z,31.50
2022-08-19T15:54:23.184Z,31.50
2022-08-19T15:57:10.199Z,31.30
2022-08-19T16:00:02.711Z,31.20
2022-08-19T16:02:49.842Z,31.00
2022-08-19T16:05:44.434Z,31.00
2022-08-19T16:08:13.356Z,30.80
2022-08-19T16:10:42.072Z,30.60
2022-08-19T16:13:11.791Z,30.50
2022-08-19T16:15:45.109Z,30.60
2022-08-19T16:18:14.375Z,30.70
2022-08-19T16:20:46.864Z,30.80
2022-08-19T16:23:16.788Z,30.50
2022-08-19T16:25:45.381Z,30.50
2022-08-19T16:28:14.142Z,30.60
2022-08-19T16:30:48.634Z,30.80
2022-08-19T16:33:23.180Z,30.90
2022-08-19T16:36:00.118Z,30.80
2022-08-19T16:38:37.936Z,31.00
2022-08-19T16:41:09.006Z,31.20
2022-08-19T16:43:51.603Z,31.20
2022-08-19T16:46:39.987Z,31.20
2022-08-19T16:49:54.504Z,31.30
2022-08-19T16:52:28.146Z,31.40
2022-08-19T16:54:57.990Z,31.50
2022-08-19T16:57:29.559Z,31.40
2022-08-19T16:59:59.725Z,31.20
2022-08-19T17:02:30.550Z,31.20
2022-08-19T17:05:02.012Z,31.00
2022-08-19T17:07:34.393Z,31.00
2022-08-19T17:10:04.368Z,31.10
2022-08-19T17:12:35.523Z,30.80
2022-08-19T17:15:07.512Z,30.60
2022-08-19T17:17:37.664Z,30.40
2022-08-19T17:20:08.488Z,30.40
2022-08-19T17:22:38.650Z,30.40
2022-08-19T17:25:11.780Z,30.60
2022-08-19T17:27:40.714Z,30.50
2022-08-19T17:30:10.561Z,30.40
2022-08-19T17:32:39.754Z,30.40
2022-08-19T17:35:09.976Z,30.00
2022-08-19T17:37:40.582Z,29.90
2022-08-19T17:40:11.020Z,30.00
2022-08-19T17:42:40.489Z,30.10
2022-08-19T17:45:13.493Z,30.10
2022-08-19T17:47:43.147Z,30.10
2022-08-19T17:50:14.532Z,30.20
2022-08-19T17:52:45.431Z,30.30
2022-08-19T17:55:14.363Z,30.40
2022-08-19T17:57:46.622Z,30.40
2022-08-19T18:00:17.729Z,30.20
2022-08-19T18:02:50.884Z,30.00
2022-08-19T18:05:21.384Z,29.70
2022-08-19T18:07:53.049Z,29.40
2022-08-19T18:10:24.297Z,29.30
2022-08-19T18:13:17.029Z,29.20
2022-08-19T18:15:47.723Z,29.20
2022-08-19T18:18:17.129Z,29.40
2022-08-19T18:20:47.255Z,29.40
2022-08-19T18:23:45.247Z,29.40
2022-08-19T18:26:06.948Z,29.40
2022-08-19T18:28:36.134Z,29.40
2022-08-19T18:31:05.197Z,29.20
2022-08-19T18:33:35.760Z,29.20
2022-08-19T18:36:13.767Z,29.10
2022-08-19T18:39:06.404Z,29.10
2022-08-19T18:41:54.484Z,29.20
2022-08-19T18:44:40.814Z,29.20
2022-08-19T18:47:27.206Z,29.40
2022-08-19T18:49:56.460Z,29.20
2022-08-19T18:52:27.703Z,28.80
2022-08-19T18:54:59.767Z,28.70
2022-08-19T18:57:28.987Z,28.80
2022-08-19T18:59:58.751Z,28.80
2022-08-19T19:02:28.061Z,28.90
2022-08-19T19:04:57.470Z,29.00
2022-08-19T19:07:29.859Z,29.10
2022-08-19T19:10:02.823Z,29.00
2022-08-19T19:12:34.316Z,28.90
2022-08-19T19:15:04.377Z,28.60
2022-08-19T19:17:38.819Z,28.40
2022-08-19T19:20:12.978Z,28.30
2022-08-19T19:22:44.143Z,28.30
2022-08-19T19:25:20.586Z,28.50
2022-08-19T19:27:57.543Z,28.50
2022-08-19T19:30:33.643Z,28.30
2022-08-19T19:33:05.559Z,28.40
2022-08-19T19:35:36.412Z,28.50
2022-08-19T19:38:05.523Z,28.50
2022-08-19T19:40:37.992Z,28.60
2022-08-19T19:43:09.284Z,28.60
2022-08-19T19:45:45.459Z,28.50
2022-08-19T19:48:18.865Z,28.30
2022-08-19T19:51:07.561Z,28.10
2022-08-19T19:53:42.843Z,28.00
2022-08-19T19:56:14.444Z,27.90
2022-08-19T19:58:51.479Z,27.80
2022-08-19T20:01:27.652Z,27.80
2022-08-19T20:04:01.973Z,27.80
2022-08-19T20:06:32.237Z,27.50
2022-08-19T20:09:19.291Z,27.10
2022-08-19T20:11:54.090Z,26.80
2022-08-19T20:14:29.472Z,26.50
2022-08-19T20:16:59.460Z,26.10
2022-08-19T20:19:34.596Z,25.80
2022-08-19T20:22:10.875Z,25.50
2022-08-19T20:24:42.808Z,25.30
2022-08-19T20:27:13.061Z,25.20
2022-08-19T20:29:45.005Z,25.30
2022-08-19T20:32:15.014Z,25.40
2022-08-19T20:34:45.138Z,25.50
2022-08-19T20:37:14.492Z,25.60
2022-08-19T20:39:44.662Z,25.70
2022-08-19T20:42:15.517Z,25.80
2022-08-19T20:44:44.498Z,25.80
2022-08-19T20:47:13.481Z,25.80
2022-08-19T20:49:42.892Z,25.80
2022-08-19T20:52:12.285Z,25.90
2022-08-19T20:54:41.880Z,26.00
2022-08-19T20:57:12.964Z,26.00
2022-08-19T20:59:45.463Z,26.00
2022-08-19T21:02:21.931Z,25.90
2022-08-19T21:04:50.687Z,25.90
2022-08-19T21:07:19.542Z,25.70
2022-08-19T21:09:48.789Z,25.60
2022-08-19T21:12:18.041Z,25.50
2022-08-19T21:14:48.657Z,25.40
2022-08-19T21:17:17.838Z,25.10
2022-08-19T21:19:46.556Z,25.10
2022-08-19T21:22:15.399Z,25.10
2022-08-19T21:24:44.527Z,25.00
2022-08-19T21:27:13.388Z,25.00
2022-08-19T21:29:42.472Z,25.00
2022-08-19T21:32:14.037Z,25.00
2022-08-19T21:34:43.912Z,25.00
2022-08-19T21:37:24.694Z,25.30
2022-08-19T21:39:54.384Z,25.20
2022-08-19T21:42:23.546Z,25.30
2022-08-19T21:44:52.431Z,25.40
2022-08-19T21:47:22.674Z,25.30
2022-08-19T21:49:51.414Z,25.30
2022-08-19T21:52:23.561Z,25.20
2022-08-19T21:54:52.999Z,25.20
2022-08-19T21:57:21.981Z,25.20
2022-08-19T21:59:50.676Z,25.10
2022-08-19T22:02:21.090Z,24.90
2022-08-19T22:04:52.897Z,24.80
2022-08-19T22:07:23.237Z,24.80
2022-08-19T22:09:53.030Z,24.90
2022-08-19T22:12:24.239Z,24.90
2022-08-19T22:14:53.645Z,25.00
2022-08-19T22:17:23.719Z,25.10
2022-08-19T22:19:55.088Z,25.10
2022-08-19T22:22:24.604Z,25.20
2022-08-19T22:24:53.962Z,25.10
2022-08-19T22:27:23.184Z,25.20
2022-08-19T22:29:52.569Z,25.20
2022-08-19T22:32:26.916Z,25.00
2022-08-19T22:35:01.040Z,24.90
2022-08-19T22:37:32.075Z,24.80
2022-08-19T22:40:01.295Z,24.90
2022-08-19T22:42:34.144Z,24.70
2022-08-19T22:45:02.971Z,24.60
2022-08-19T22:47:32.301Z,24.50
2022-08-19T22:50:07.475Z,24.40
2022-08-19T22:52:51.881Z,24.50
2022-08-19T22:55:21.136Z,24.50
2022-08-19T22:57:49.883Z,24.60
2022-08-19T23:00:18.946Z,24.70
2022-08-19T23:02:52.125Z,24.70
2022-08-19T23:05:25.664Z,24.70
2022-08-19T23:07:57.791Z,24.50
2022-08-19T23:10:29.311Z,24.40
2022-08-19T23:12:59.721Z,24.40
2022-08-19T23:15:30.508Z,24.40
2022-08-19T23:18:02.939Z,24.40
2022-08-19T23:20:35.427Z,24.40
2022-08-19T23:23:06.245Z,24.50
2022-08-19T23:25:36.468Z,24.50
2022-08-19T23:28:23.666Z,24.40
2022-08-19T23:30:54.070Z,24.40
2022-08-19T23:33:25.590Z,24.40
2022-08-19T23:36:17.522Z,24.40
2022-08-19T23:38:48.094Z,24.30
2022-08-19T23:41:19.093Z,24.30
2022-08-19T23:43:47.974Z,24.30
2022-08-19T23:46:27.395Z,24.40
2022-08-19T23:48:57.125Z,24.40
2022-08-19T23:51:27.513Z,24.50
2022-08-19T23:53:56.385Z,24.50
2022-08-19T23:56:25.081Z,24.40
2022-08-19T23:58:53.921Z,24.30
